Time;durP1;ratioP1;P1;durP2;ratioP2;P2;SDS_P1;SDS_P2;PMS_P1;PMS_P2;Temp;Humidity;BMP_temperature;BMP_pressure;BME280_temperature;BME280_humidity;BME280_pressure;Samples;Min_cycle;Max_cycle;Signal;HPM_P1;HPM_P2
2021/07/19 00:02:04;;;;;;;54.88;31.70;;;20.20;99.90;;;;;;5134255;27;20023;-59
2021/07/19 00:04:38;;;;;;;59.80;32.53;;;20.20;99.90;;;;;;5134191;27;20430;-58
2021/07/19 00:07:05;;;;;;;54.67;30.35;;;20.30;99.90;;;;;;5134336;27;20377;-60
2021/07/19 00:09:31;;;;;;;66.95;32.53;;;20.20;99.90;;;;;;5133975;27;20084;-59
2021/07/19 00:11:56;;;;;;;52.83;30.77;;;20.20;99.90;;;;;;5134070;27;20474;-59
2021/07/19 00:14:22;;;;;;;59.45;31.45;;;20.20;99.90;;;;;;5133858;28;20035;-59
2021/07/19 00:16:48;;;;;;;49.83;27.95;;;20.20;99.90;;;;;;5115057;28;20043;-59
2021/07/19 00:19:14;;;;;;;55.85;28.08;;;20.10;99.90;;;;;;5132199;28;20027;-59
2021/07/19 00:21:40;;;;;;;63.55;29.35;;;20.10;99.90;;;;;;5133811;27;20414;-58
2021/07/19 00:24:06;;;;;;;45.15;25.33;;;20.00;99.90;;;;;;5136695;27;20019;-58
2021/07/19 00:26:32;;;;;;;45.72;24.27;;;20.00;99.90;;;;;;5118893;27;20023;-58
2021/07/19 00:28:57;;;;;;;51.00;25.23;;;20.00;99.90;;;;;;5084851;27;20485;-60
2021/07/19 00:31:23;;;;;;;58.80;26.23;;;20.00;99.90;;;;;;5137533;27;20030;-59
2021/07/19 00:33:50;;;;;;;47.03;25.15;;;20.00;99.90;;;;;;5137745;27;20026;-59
2021/07/19 00:36:16;;;;;;;54.00;26.60;;;19.90;99.90;;;;;;5137533;27;20386;-59
2021/07/19 00:38:42;;;;;;;58.72;26.33;;;19.90;99.90;;;;;;5137417;27;20019;-59
2021/07/19 00:41:08;;;;;;;51.97;27.33;;;19.90;99.90;;;;;;5137507;27;20065;-58
2021/07/19 00:43:33;;;;;;;64.32;35.38;;;19.90;99.90;;;;;;5137467;27;20055;-59
2021/07/19 00:45:59;;;;;;;69.03;38.40;;;19.90;99.90;;;;;;5097179;28;20055;-58
2021/07/19 00:48:25;;;;;;;70.22;35.53;;;19.80;99.90;;;;;;5114663;28;20477;-58
2021/07/19 00:50:52;;;;;;;56.80;28.30;;;19.90;99.90;;;;;;5114678;28;20028;-60
2021/07/19 00:53:17;;;;;;;60.50;28.10;;;19.90;99.90;;;;;;5114676;28;20158;-60
2021/07/19 00:55:46;;;;;;;46.55;24.05;;;19.90;99.90;;;;;;5114109;28;20032;-58
2021/07/19 00:58:14;;;;;;;56.65;27.52;;;19.80;99.90;;;;;;5114745;28;20039;-59
2021/07/19 01:00:50;;;;;;;53.63;25.63;;;19.80;99.90;;;;;;5114425;28;20486;-58
2021/07/19 01:03:17;;;;;;;65.00;27.80;;;19.80;99.90;;;;;;5114409;28;20030;-59
2021/07/19 01:05:44;;;;;;;59.88;26.27;;;19.80;99.90;;;;;;5097437;28;20063;-58
2021/07/19 01:08:09;;;;;;;50.38;26.65;;;19.90;99.90;;;;;;5114505;28;20054;-59
2021/07/19 01:10:37;;;;;;;50.22;26.17;;;19.90;99.90;;;;;;5114296;28;20063;-58
2021/07/19 01:13:06;;;;;;;53.78;27.33;;;19.90;99.90;;;;;;5114232;28;20371;-60
2021/07/19 01:15:34;;;;;;;64.03;28.35;;;19.90;99.90;;;;;;5114181;28;20027;-58
2021/07/19 01:18:01;;;;;;;48.40;24.80;;;19.90;99.90;;;;;;5096833;28;20044;-59
2021/07/19 01:20:56;;;;;;;43.60;24.58;;;19.90;99.90;;;;;;5094114;28;20032;-60
2021/07/19 01:23:21;;;;;;;52.03;26.58;;;19.90;99.90;;;;;;5095870;28;20118;-60
2021/07/19 01:26:04;;;;;;;61.92;27.77;;;19.90;99.90;;;;;;5095617;28;20056;-58
2021/07/19 01:28:49;;;;;;;61.97;29.05;;;19.90;99.90;;;;;;5111164;28;20544;-60
2021/07/19 01:31:17;;;;;;;60.03;26.92;;;19.90;99.90;;;;;;5095560;28;20504;-59
2021/07/19 01:33:48;;;;;;;53.97;27.95;;;19.90;99.90;;;;;;5097694;28;20036;-59
2021/07/19 01:36:22;;;;;;;53.85;27.95;;;19.90;99.90;;;;;;5110659;28;20398;-59
2021/07/19 01:38:48;;;;;;;64.65;29.67;;;19.90;99.90;;;;;;5095243;28;20035;-59
2021/07/19 01:41:17;;;;;;;63.15;29.05;;;19.90;99.90;;;;;;5095370;28;20024;-58
2021/07/19 01:43:45;;;;;;;59.78;29.42;;;19.90;99.90;;;;;;5095434;28;20028;-59
2021/07/19 01:46:13;;;;;;;64.72;30.15;;;19.80;99.90;;;;;;5099975;27;20036;-59
2021/07/19 01:48:39;;;;;;;56.92;29.20;;;19.90;99.90;;;;;;5136198;27;20027;-59
2021/07/19 01:51:05;;;;;;;59.40;29.27;;;19.80;99.90;;;;;;5136354;27;20477;-60
2021/07/19 01:53:32;;;;;;;67.95;30.25;;;19.80;99.90;;;;;;5117306;27;20042;-58
2021/07/19 01:55:59;;;;;;;70.05;31.08;;;19.80;99.90;;;;;;5135886;27;20019;-59
2021/07/19 01:58:26;;;;;;;57.65;29.60;;;19.80;99.90;;;;;;5134837;27;20374;-58
2021/07/19 02:00:53;;;;;;;64.07;29.38;;;19.80;99.90;;;;;;5117071;27;20110;-60
2021/07/19 02:03:20;;;;;;;66.10;30.80;;;19.80;99.90;;;;;;5135947;27;20106;-58
2021/07/19 02:05:48;;;;;;;62.90;30.13;;;19.80;99.90;;;;;;5116905;27;20172;-58
2021/07/19 02:08:16;;;;;;;63.95;30.50;;;19.90;99.90;;;;;;5136057;27;20019;-59
2021/07/19 02:10:46;;;;;;;70.82;31.77;;;19.80;99.90;;;;;;5135916;27;20037;-64
2021/07/19 02:13:12;;;;;;;74.85;30.52;;;19.90;99.90;;;;;;5135920;27;20449;-59
2021/07/19 02:15:39;;;;;;;74.57;30.40;;;19.80;99.90;;;;;;5135782;27;20062;-59
2021/07/19 02:18:07;;;;;;;71.18;29.52;;;19.90;99.90;;;;;;5117031;27;20046;-60
2021/07/19 02:20:33;;;;;;;67.32;30.25;;;19.80;99.90;;;;;;5135734;27;20030;-58
2021/07/19 02:23:02;;;;;;;62.05;30.45;;;19.80;99.90;;;;;;5135515;27;20031;-60
2021/07/19 02:25:28;;;;;;;65.68;29.90;;;19.90;99.90;;;;;;5135451;27;20500;-59
2021/07/19 02:27:55;;;;;;;76.40;31.48;;;19.90;99.90;;;;;;5135373;27;20041;-59
2021/07/19 02:30:22;;;;;;;67.82;29.50;;;19.90;99.90;;;;;;5135486;27;20092;-58
2021/07/19 02:32:55;;;;;;;70.75;29.88;;;19.90;99.90;;;;;;5116381;27;20087;-60
2021/07/19 02:35:24;;;;;;;72.25;31.73;;;20.00;99.90;;;;;;5135284;27;20083;-59
2021/07/19 02:37:52;;;;;;;82.53;32.53;;;19.90;99.90;;;;;;5115988;27;20070;-58
2021/07/19 02:40:21;;;;;;;78.85;32.45;;;19.90;99.90;;;;;;5135245;27;20099;-60
2021/07/19 02:42:51;;;;;;;91.97;34.85;;;20.00;99.90;;;;;;5135247;27;20076;-60
2021/07/19 02:45:19;;;;;;;89.95;35.50;;;20.00;99.90;;;;;;5134838;27;20027;-59
2021/07/19 02:47:47;;;;;;;105.93;35.25;;;20.00;99.90;;;;;;5134760;27;20046;-58
2021/07/19 02:50:14;;;;;;;104.70;35.88;;;20.10;99.90;;;;;;5135008;27;20023;-58
2021/07/19 02:52:42;;;;;;;91.78;34.85;;;20.10;99.90;;;;;;5135021;27;20029;-60
2021/07/19 02:55:09;;;;;;;99.95;38.63;;;20.00;99.90;;;;;;5134991;27;20027;-61
2021/07/19 02:57:36;;;;;;;106.40;37.17;;;20.00;99.90;;;;;;5134867;27;20039;-60
2021/07/19 03:00:10;;;;;;;104.28;39.13;;;20.00;99.90;;;;;;5135002;27;20024;-63
2021/07/19 03:02:40;;;;;;;123.45;39.13;;;20.00;99.90;;;;;;5098917;27;20035;-60
2021/07/19 03:05:08;;;;;;;122.90;41.22;;;20.00;99.90;;;;;;5134769;27;20031;-58
2021/07/19 03:07:36;;;;;;;131.65;41.72;;;20.00;99.90;;;;;;5099407;27;20395;-57
2021/07/19 03:10:03;;;;;;;134.15;42.70;;;20.00;99.90;;;;;;5134628;27;20062;-60
2021/07/19 03:12:33;;;;;;;149.88;42.92;;;20.00;99.90;;;;;;5099294;27;20441;-59
2021/07/19 03:14:59;;;;;;;145.65;44.13;;;20.00;99.90;;;;;;5134960;27;20439;-57
2021/07/19 03:17:26;;;;;;;173.55;45.38;;;20.10;99.90;;;;;;5111912;28;20077;-58
2021/07/19 03:19:55;;;;;;;182.23;45.55;;;20.10;99.90;;;;;;5112062;28;20085;-60
2021/07/19 03:22:23;;;;;;;170.98;45.33;;;20.00;99.90;;;;;;5111871;28;20428;-60
2021/07/19 03:24:52;;;;;;;160.45;44.75;;;20.10;99.90;;;;;;5111967;28;20030;-57
2021/07/19 03:27:19;;;;;;;165.73;44.85;;;20.00;99.90;;;;;;5078013;28;20429;-57
2021/07/19 03:29:46;;;;;;;172.48;45.45;;;20.10;99.90;;;;;;5111671;28;20024;-60
2021/07/19 03:32:13;;;;;;;204.35;49.65;;;20.10;99.90;;;;;;5077863;28;20525;-59
2021/07/19 03:34:40;;;;;;;178.30;46.25;;;20.10;99.90;;;;;;5111878;28;20473;-60
2021/07/19 03:37:07;;;;;;;174.13;45.58;;;20.10;99.90;;;;;;5111564;28;20051;-62
2021/07/19 03:39:33;;;;;;;172.45;46.47;;;20.20;99.90;;;;;;5111632;28;20034;-61
2021/07/19 03:41:59;;;;;;;156.82;45.15;;;20.20;99.90;;;;;;5111607;28;20023;-58
2021/07/19 03:44:26;;;;;;;151.73;44.55;;;20.20;99.90;;;;;;5077801;28;20466;-60
2021/07/19 03:46:52;;;;;;;136.15;42.35;;;20.20;99.90;;;;;;5077656;28;20047;-62
2021/07/19 03:49:19;;;;;;;126.88;41.83;;;20.20;99.90;;;;;;5059914;28;20042;-57
2021/07/19 03:51:49;;;;;;;145.75;43.53;;;20.30;99.90;;;;;;5134134;27;20035;-58
2021/07/19 03:54:15;;;;;;;127.53;40.78;;;20.30;99.90;;;;;;5134203;27;20019;-60
2021/07/19 03:56:42;;;;;;;120.78;39.30;;;20.30;99.90;;;;;;5134170;27;20046;-59
2021/07/19 03:59:10;;;;;;;104.50;39.80;;;20.40;99.90;;;;;;5137203;27;20020;-57
2021/07/19 04:01:38;;;;;;;110.15;37.55;;;20.40;99.90;;;;;;5119214;27;20044;-58
2021/07/19 04:04:08;;;;;;;101.85;36.95;;;20.40;99.90;;;;;;5136727;27;20040;-60
2021/07/19 04:06:36;;;;;;;92.10;35.05;;;20.50;99.90;;;;;;5130688;27;20031;-62
2021/07/19 04:09:03;;;;;;;81.20;34.28;;;20.50;99.90;;;;;;5137711;27;20035;-60
2021/07/19 04:11:30;;;;;;;86.95;34.08;;;20.50;99.90;;;;;;5138949;27;20056;-60
2021/07/19 04:13:56;;;;;;;95.30;35.72;;;20.50;99.90;;;;;;5147389;27;20030;-60
2021/07/19 04:16:22;;;;;;;88.78;34.72;;;20.60;99.90;;;;;;5146206;27;20046;-60
2021/07/19 04:18:49;;;;;;;84.95;33.85;;;20.60;99.90;;;;;;5148380;27;20358;-57
2021/07/19 04:21:16;;;;;;;61.60;31.10;;;20.60;99.90;;;;;;5148284;27;20020;-60
2021/07/19 04:23:42;;;;;;;77.65;32.45;;;20.60;99.90;;;;;;5146422;27;20027;-60
2021/07/19 04:26:11;;;;;;;77.35;31.20;;;20.60;99.90;;;;;;5137066;27;20029;-59
2021/07/19 04:28:38;;;;;;;59.50;29.30;;;20.60;99.90;;;;;;5137827;27;20027;-60
2021/07/19 04:31:04;;;;;;;72.93;29.60;;;20.60;99.90;;;;;;5137831;27;20030;-58
2021/07/19 04:33:30;;;;;;;62.10;29.45;;;20.70;99.90;;;;;;5137696;27;20019;-59
2021/07/19 04:35:56;;;;;;;65.18;30.25;;;20.70;99.90;;;;;;5137603;27;20023;-59
2021/07/19 04:38:23;;;;;;;65.07;29.08;;;20.70;99.90;;;;;;5137488;27;20019;-55
2021/07/19 04:40:53;;;;;;;67.60;30.35;;;20.80;99.90;;;;;;5137516;27;20438;-59
2021/07/19 04:43:20;;;;;;;55.00;26.45;;;20.90;99.90;;;;;;5137413;27;20106;-58
2021/07/19 04:45:47;;;;;;;63.80;29.02;;;20.80;99.90;;;;;;5137359;27;20039;-58
2021/07/19 04:48:14;;;;;;;52.88;26.80;;;20.90;99.90;;;;;;5136987;27;20041;-57
2021/07/19 04:50:40;;;;;;;62.25;27.77;;;20.80;99.90;;;;;;5138896;27;20112;-57
2021/07/19 04:53:06;;;;;;;63.60;28.75;;;20.90;99.90;;;;;;5136778;27;20026;-57
2021/07/19 04:55:34;;;;;;;67.63;28.02;;;20.90;99.90;;;;;;5136860;27;20446;-60
2021/07/19 04:58:00;;;;;;;59.72;26.90;;;21.00;99.90;;;;;;5136883;27;20359;-61
2021/07/19 05:00:27;;;;;;;52.45;26.30;;;21.00;99.90;;;;;;5136409;27;20035;-56
2021/07/19 05:02:56;;;;;;;68.95;28.35;;;20.90;99.90;;;;;;5109407;27;20088;-59
2021/07/19 05:05:25;;;;;;;51.85;25.13;;;21.00;99.90;;;;;;5135947;27;20521;-57
2021/07/19 05:07:53;;;;;;;50.03;26.10;;;21.10;99.90;;;;;;5137953;27;20015;-56
2021/07/19 05:10:20;;;;;;;47.13;24.10;;;21.00;99.90;;;;;;5139545;27;20035;-59
2021/07/19 05:12:49;;;;;;;38.13;22.02;;;21.00;99.90;;;;;;5136899;27;20552;-56
2021/07/19 05:15:16;;;;;;;36.90;21.77;;;21.00;99.90;;;;;;5136946;27;20030;-56
2021/07/19 05:17:42;;;;;;;38.28;22.10;;;20.90;99.90;;;;;;5136760;27;20377;-57
2021/07/19 05:20:13;;;;;;;33.50;21.63;;;21.00;99.90;;;;;;5136479;27;20023;-56
2021/07/19 05:22:45;;;;;;;53.67;25.10;;;21.00;99.90;;;;;;5101161;27;20397;-57
2021/07/19 05:25:13;;;;;;;47.95;23.55;;;21.10;99.90;;;;;;5117881;27;20048;-55
2021/07/19 05:28:01;;;;;;;47.55;23.70;;;21.20;99.90;;;;;;5099242;27;20069;-59
2021/07/19 05:30:28;;;;;;;40.80;22.27;;;21.20;99.90;;;;;;5116124;28;20485;-61
2021/07/19 05:32:54;;;;;;;36.97;21.02;;;21.10;99.90;;;;;;5116011;28;20130;-63
2021/07/19 05:35:21;;;;;;;37.60;21.63;;;21.00;99.90;;;;;;5115947;28;20118;-63
2021/07/19 05:37:48;;;;;;;37.20;22.17;;;21.00;99.90;;;;;;5135307;27;20114;-63
2021/07/19 05:40:17;;;;;;;35.20;21.95;;;21.00;99.90;;;;;;5095180;28;20036;-58
2021/07/19 05:42:43;;;;;;;41.85;23.27;;;21.10;99.90;;;;;;5115757;28;20046;-59
2021/07/19 05:45:10;;;;;;;44.20;22.48;;;21.10;99.90;;;;;;5115581;28;20500;-59
2021/07/19 05:47:37;;;;;;;32.75;21.35;;;21.10;99.90;;;;;;5115572;28;20517;-61
2021/07/19 05:50:04;;;;;;;35.58;21.75;;;21.10;99.90;;;;;;5133237;27;20027;-60
2021/07/19 05:52:30;;;;;;;42.80;23.08;;;21.00;99.90;;;;;;5100095;27;20068;-63
2021/07/19 05:54:58;;;;;;;42.80;23.10;;;21.20;99.90;;;;;;5116917;27;20031;-57
2021/07/19 05:57:26;;;;;;;35.17;21.95;;;21.20;99.90;;;;;;5117626;27;20043;-58
2021/07/19 05:59:56;;;;;;;42.33;22.48;;;21.20;99.90;;;;;;5117119;27;20035;-61
2021/07/19 06:02:22;;;;;;;32.63;19.85;;;21.30;99.90;;;;;;5135882;27;20069;-59
2021/07/19 06:04:48;;;;;;;30.02;20.20;;;21.20;99.90;;;;;;5116584;27;20035;-63
2021/07/19 06:07:14;;;;;;;46.00;22.75;;;21.20;99.90;;;;;;5114243;27;20035;-67
2021/07/19 06:09:39;;;;;;;35.92;20.48;;;21.30;99.90;;;;;;5130766;27;20023;-60
2021/07/19 06:12:06;;;;;;;32.33;19.67;;;21.20;99.90;;;;;;5135143;27;20370;-62
2021/07/19 06:14:31;;;;;;;34.92;19.77;;;21.20;99.90;;;;;;5099464;27;20087;-64
2021/07/19 06:16:57;;;;;;;36.50;20.23;;;21.10;99.90;;;;;;5135225;27;20505;-64
2021/07/19 06:19:23;;;;;;;39.42;21.48;;;21.20;99.90;;;;;;5082922;27;20046;-66
2021/07/19 06:21:49;;;;;;;35.53;20.85;;;21.10;99.90;;;;;;5134402;27;20374;-59
2021/07/19 06:24:14;;;;;;;45.50;22.45;;;21.20;99.90;;;;;;5116736;27;20481;-66
2021/07/19 06:26:40;;;;;;;31.25;19.88;;;21.20;99.90;;;;;;5135198;27;20072;-64
2021/07/19 06:29:06;;;;;;;26.73;19.35;;;21.10;99.90;;;;;;5135375;27;20029;-61
2021/07/19 06:31:32;;;;;;;26.42;17.75;;;21.10;99.90;;;;;;5135038;27;20042;-57
2021/07/19 06:33:58;;;;;;;25.27;18.85;;;21.10;99.90;;;;;;5135316;27;20027;-62
2021/07/19 06:36:24;;;;;;;29.02;19.70;;;21.10;99.90;;;;;;5135291;27;20114;-63
2021/07/19 06:38:50;;;;;;;30.35;18.83;;;21.20;99.90;;;;;;5135011;27;20031;-63
2021/07/19 06:41:16;;;;;;;32.30;19.88;;;21.20;99.90;;;;;;5135260;27;20027;-65
2021/07/19 06:43:42;;;;;;;28.05;18.40;;;21.20;99.90;;;;;;5082405;27;20031;-66
2021/07/19 06:46:08;;;;;;;34.22;21.80;;;21.30;99.90;;;;;;5115375;27;20039;-65
2021/07/19 06:48:35;;;;;;;35.83;21.38;;;21.40;99.90;;;;;;5134976;27;20023;-62
2021/07/19 06:51:01;;;;;;;28.30;20.40;;;21.50;99.90;;;;;;5134999;27;20035;-61
2021/07/19 06:53:28;;;;;;;29.58;20.85;;;21.60;99.90;;;;;;5078970;27;20032;-64
2021/07/19 06:55:54;;;;;;;35.50;22.33;;;21.70;99.90;;;;;;5134313;27;20022;-67
2021/07/19 06:58:20;;;;;;;30.98;21.48;;;21.90;99.90;;;;;;5134199;27;20019;-65
2021/07/19 07:00:46;;;;;;;44.83;26.35;;;21.80;99.90;;;;;;5134202;27;20037;-65
2021/07/19 07:03:11;;;;;;;32.72;21.23;;;21.90;99.90;;;;;;5134396;27;20458;-64
2021/07/19 07:05:37;;;;;;;27.02;19.60;;;21.90;99.90;;;;;;5134989;27;20176;-59
2021/07/19 07:08:04;;;;;;;28.20;20.85;;;21.90;99.90;;;;;;5134801;27;20049;-60
2021/07/19 07:10:29;;;;;;;32.72;21.25;;;22.00;99.90;;;;;;5134787;27;20023;-62
2021/07/19 07:12:55;;;;;;;29.35;20.10;;;22.10;99.90;;;;;;5115258;27;20038;-63
2021/07/19 07:15:22;;;;;;;32.40;20.90;;;22.20;99.90;;;;;;5134726;27;20458;-61
2021/07/19 07:17:50;;;;;;;23.45;19.23;;;22.30;99.90;;;;;;5139604;27;20049;-59
2021/07/19 07:20:16;;;;;;;25.15;18.38;;;22.10;99.90;;;;;;5145404;27;20023;-64
2021/07/19 07:22:42;;;;;;;27.60;19.30;;;22.10;99.90;;;;;;5134118;27;20026;-61
2021/07/19 07:25:10;;;;;;;28.52;18.20;;;22.20;99.90;;;;;;5134471;27;20019;-58
2021/07/19 07:27:37;;;;;;;25.17;18.92;;;22.50;99.90;;;;;;5097663;28;20058;-62
2021/07/19 07:30:08;;;;;;;28.05;19.77;;;22.50;99.90;;;;;;5133874;27;20055;-63
2021/07/19 07:32:37;;;;;;;26.55;19.63;;;22.50;99.90;;;;;;5090531;28;20036;-64
2021/07/19 07:35:04;;;;;;;28.20;20.88;;;22.40;99.90;;;;;;5090690;28;20040;-60
2021/07/19 07:37:33;;;;;;;33.90;21.95;;;22.70;99.90;;;;;;5090732;28;20056;-64
2021/07/19 07:39:59;;;;;;;23.65;18.58;;;23.00;99.90;;;;;;5091315;28;20024;-58
2021/07/19 07:42:25;;;;;;;20.45;16.63;;;22.80;99.90;;;;;;5091272;28;20032;-60
2021/07/19 07:44:51;;;;;;;20.23;16.30;;;22.60;99.90;;;;;;5091005;28;20028;-62
2021/07/19 07:47:17;;;;;;;21.70;18.40;;;22.80;99.90;;;;;;5057521;28;20394;-65
2021/07/19 07:49:42;;;;;;;18.02;16.00;;;23.10;99.90;;;;;;5076982;28;20028;-67
2021/07/19 07:52:11;;;;;;;26.15;18.30;;;23.20;99.90;;;;;;5087441;28;20036;-56
2021/07/19 07:54:37;;;;;;;19.25;15.70;;;;;;;;;;5073702;28;20169;-58
2021/07/19 07:57:03;;;;;;;25.58;18.65;;;23.30;99.90;;;;;;5073409;28;20590;-58
2021/07/19 07:59:30;;;;;;;19.85;17.00;;;23.50;99.90;;;;;;5055724;28;20068;-60
2021/07/19 08:01:56;;;;;;;18.13;16.20;;;23.50;99.90;;;;;;5090544;28;20491;-60
2021/07/19 08:04:22;;;;;;;20.23;16.23;;;23.30;99.90;;;;;;5126975;28;20035;-59
2021/07/19 08:06:48;;;;;;;17.27;14.93;;;23.30;99.90;;;;;;5133316;27;20424;-64
2021/07/19 08:09:14;;;;;;;17.10;15.40;;;23.00;99.90;;;;;;5132940;28;20484;-61
2021/07/19 08:11:41;;;;;;;18.70;15.98;;;23.00;99.90;;;;;;5106049;28;20027;-62
2021/07/19 08:14:07;;;;;;;19.67;17.50;;;22.80;99.90;;;;;;5133790;27;20027;-59
2021/07/19 08:16:36;;;;;;;19.52;17.45;;;22.80;99.90;;;;;;5115006;28;20390;-59
2021/07/19 08:19:04;;;;;;;20.42;17.95;;;23.20;99.90;;;;;;5133886;27;20031;-57
2021/07/19 08:21:30;;;;;;;19.98;16.33;;;23.30;99.90;;;;;;5098552;28;20039;-61
2021/07/19 08:23:55;;;;;;;24.27;19.63;;;23.70;99.90;;;;;;5132900;27;20426;-57
2021/07/19 08:26:21;;;;;;;18.77;15.40;;;23.90;99.90;;;;;;5102165;28;20028;-57
2021/07/19 08:28:47;;;;;;;16.60;14.98;;;23.90;99.90;;;;;;5135492;27;20030;-61
2021/07/19 08:31:12;;;;;;;21.58;17.73;;;23.60;99.90;;;;;;5137013;27;20124;-60
2021/07/19 08:33:38;;;;;;;18.63;16.40;;;23.70;99.90;;;;;;5144655;27;20125;-59
2021/07/19 08:36:05;;;;;;;20.92;16.48;;;23.60;99.90;;;;;;5135373;27;20474;-59
2021/07/19 08:38:32;;;;;;;19.42;16.35;;;23.60;99.90;;;;;;5133664;27;20035;-61
2021/07/19 08:41:00;;;;;;;20.60;18.42;;;23.60;99.90;;;;;;5133392;27;20319;-61
2021/07/19 08:43:26;;;;;;;17.63;15.73;;;23.50;99.90;;;;;;5106664;28;20053;-58
2021/07/19 08:45:52;;;;;;;19.88;14.98;;;23.70;99.90;;;;;;5136411;27;20461;-60
2021/07/19 08:48:18;;;;;;;17.50;15.68;;;23.60;99.90;;;;;;5135478;27;20043;-60
2021/07/19 08:50:44;;;;;;;20.00;16.23;;;23.60;99.90;;;;;;5137091;27;20031;-60
2021/07/19 08:53:10;;;;;;;17.20;15.40;;;23.90;99.90;;;;;;5136732;27;20466;-61
2021/07/19 08:55:37;;;;;;;17.98;15.70;;;24.30;99.90;;;;;;5142312;27;20637;-61
2021/07/19 08:58:04;;;;;;;15.30;13.73;;;23.80;99.90;;;;;;5136183;27;20543;-60
2021/07/19 09:00:30;;;;;;;16.50;14.80;;;24.00;99.90;;;;;;5137291;27;20020;-61
2021/07/19 09:02:56;;;;;;;20.30;17.13;;;23.80;99.90;;;;;;5136705;27;20079;-60
2021/07/19 09:05:22;;;;;;;18.83;16.27;;;23.90;99.90;;;;;;5136944;27;20103;-60
2021/07/19 09:07:50;;;;;;;15.15;13.52;;;24.20;99.90;;;;;;5135393;27;20035;-60
2021/07/19 09:10:25;;;;;;;13.48;12.10;;;24.20;99.90;;;;;;5118602;27;20412;-61
2021/07/19 09:12:50;;;;;;;14.15;12.38;;;24.70;99.90;;;;;;5137086;27;20027;-63
2021/07/19 09:15:29;;;;;;;14.93;12.57;;;24.90;99.90;;;;;;5135282;27;20035;-63
2021/07/19 09:17:59;;;;;;;14.48;12.80;;;24.80;99.90;;;;;;5137075;27;20490;-63
2021/07/19 09:20:33;;;;;;;21.83;18.65;;;25.00;99.90;;;;;;5136897;27;20046;-62
2021/07/19 09:22:59;;;;;;;12.73;11.27;;;25.00;99.90;;;;;;5136882;27;20098;-63
2021/07/19 09:25:26;;;;;;;15.88;12.98;;;24.60;99.90;;;;;;5136300;27;20030;-62
2021/07/19 09:28:06;;;;;;;13.45;11.80;;;24.40;99.90;;;;;;5136133;27;20457;-62
2021/07/19 09:30:38;;;;;;;11.00;9.73;;;24.20;99.90;;;;;;5136121;27;20076;-63
2021/07/19 09:33:13;;;;;;;11.85;10.68;;;23.90;99.90;;;;;;5136074;27;20042;-60
2021/07/19 09:35:42;;;;;;;14.52;12.80;;;23.60;99.90;;;;;;5136814;27;20142;-62
2021/07/19 09:38:10;;;;;;;14.07;11.88;;;23.60;99.90;;;;;;5136239;27;20096;-62
2021/07/19 09:40:38;;;;;;;12.32;10.98;;;23.30;99.90;;;;;;5136752;27;20023;-62
2021/07/19 09:43:15;;;;;;;10.93;9.88;;;23.40;99.90;;;;;;5136458;27;20023;-62
2021/07/19 09:45:40;;;;;;;15.38;12.45;;;23.30;99.90;;;;;;5136415;27;20027;-62
2021/07/19 09:48:08;;;;;;;13.93;11.32;;;23.20;99.90;;;;;;5136260;27;20051;-60
2021/07/19 09:50:50;;;;;;;14.43;13.02;;;22.80;99.90;;;;;;5136570;27;20030;-60
2021/07/19 09:53:26;;;;;;;12.90;11.45;;;22.90;99.90;;;;;;5134918;27;20036;-60
2021/07/19 09:55:52;;;;;;;13.85;10.93;;;22.80;99.90;;;;;;5135552;27;20432;-60
2021/07/19 09:58:22;;;;;;;16.65;14.57;;;23.00;99.90;;;;;;5134936;27;20080;-61
2021/07/19 10:00:48;;;;;;;13.98;11.52;;;23.10;99.90;;;;;;5134093;27;20037;-60
2021/07/19 10:03:15;;;;;;;15.75;13.55;;;22.80;99.90;;;;;;5134991;27;20106;-62
2021/07/19 10:05:41;;;;;;;14.00;12.55;;;23.20;99.90;;;;;;5137712;27;20024;-60
2021/07/19 10:08:18;;;;;;;15.90;14.25;;;23.30;99.90;;;;;;5139652;27;20023;-61
2021/07/19 10:10:45;;;;;;;11.80;10.48;;;23.50;99.90;;;;;;5143590;27;20407;-62
2021/07/19 10:13:11;;;;;;;9.55;8.55;;;23.90;99.90;;;;;;5134681;27;20113;-62
2021/07/19 10:15:38;;;;;;;9.57;8.68;;;23.90;99.90;;;;;;5115849;27;20259;-62
2021/07/19 10:18:11;;;;;;;18.65;13.65;;;24.00;99.90;;;;;;5098176;27;20066;-61
2021/07/19 10:20:39;;;;;;;21.23;15.35;;;23.60;99.90;;;;;;5135428;27;20063;-61
2021/07/19 10:23:05;;;;;;;10.50;8.80;;;24.10;99.90;;;;;;5116429;27;20035;-62
2021/07/19 10:25:34;;;;;;;10.68;9.57;;;24.10;99.90;;;;;;5135248;27;20030;-62
2021/07/19 10:28:00;;;;;;;15.63;12.20;;;24.10;99.90;;;;;;5134504;27;20028;-61
2021/07/19 10:30:26;;;;;;;9.95;8.93;;;25.20;99.90;;;;;;5133802;27;20023;-61
2021/07/19 10:32:52;;;;;;;13.02;10.05;;;25.50;99.90;;;;;;5115084;27;20050;-61
2021/07/19 10:35:20;;;;;;;9.85;8.77;;;25.60;99.90;;;;;;5134300;27;20020;-62
2021/07/19 10:37:50;;;;;;;8.70;7.90;;;25.10;99.90;;;;;;5134204;27;20031;-62
2021/07/19 10:40:28;;;;;;;10.00;9.07;;;25.00;99.90;;;;;;5134015;27;20019;-61
2021/07/19 10:43:07;;;;;;;9.25;8.25;;;24.80;99.90;;;;;;5134186;27;20392;-62
2021/07/19 10:45:50;;;;;;;9.25;7.50;;;24.10;99.90;;;;;;5134083;27;20624;-61
2021/07/19 10:48:30;;;;;;;9.63;8.45;;;23.70;99.90;;;;;;5133890;27;20043;-61
2021/07/19 10:51:14;;;;;;;10.65;9.55;;;23.70;99.90;;;;;;5114701;27;20039;-61
2021/07/19 10:53:40;;;;;;;9.75;8.18;;;23.60;99.90;;;;;;5133794;27;20534;-60
2021/07/19 10:56:12;;;;;;;8.93;7.90;;;24.00;99.90;;;;;;5077906;28;20047;-61
2021/07/19 10:58:44;;;;;;;11.38;9.98;;;24.30;99.90;;;;;;5124514;27;20031;-60
2021/07/19 11:01:19;;;;;;;12.73;8.80;;;;;;;;;;5112980;28;20028;-60
2021/07/19 11:03:46;;;;;;;10.70;9.70;;;;;;;;;;5113243;28;20028;-61
2021/07/19 11:06:12;;;;;;;10.82;9.38;;;;;;;;;;5113003;28;20024;-59
2021/07/19 11:08:51;;;;;;;11.07;9.98;;;25.70;99.90;;;;;;5112858;28;20028;-60
2021/07/19 11:11:31;;;;;;;9.52;8.52;;;;;;;;;;5113105;28;20050;-60
2021/07/19 11:14:01;;;;;;;11.02;8.38;;;25.80;99.90;;;;;;5110867;28;20028;-60
2021/07/19 11:16:38;;;;;;;9.95;8.95;;;26.80;99.90;;;;;;5117729;27;20050;-60
2021/07/19 11:19:04;;;;;;;10.45;9.48;;;;;;;;;;5131164;27;20080;-59
2021/07/19 11:21:32;;;;;;;9.68;8.52;;;;;;;;;;5133451;27;20015;-60
2021/07/19 11:24:17;;;;;;;11.30;8.20;;;28.60;99.90;;;;;;5132938;27;20482;-60
2021/07/19 11:27:01;;;;;;;11.35;7.70;;;28.40;96.80;;;;;;5132310;27;20131;-60
2021/07/19 11:29:30;;;;;;;8.38;7.28;;;28.90;98.10;;;;;;5132847;27;20613;-60
2021/07/19 11:32:23;;;;;;;12.90;8.82;;;29.00;94.80;;;;;;5133413;27;20027;-60
2021/07/19 11:34:49;;;;;;;;;;;28.50;95.50;;;;;;5131464;27;20478;-60
2021/07/19 11:37:17;;;;;;;11.15;7.80;;;28.80;94.50;;;;;;5089035;28;19916;-60
2021/07/19 11:39:52;;;;;;;7.60;6.60;;;30.00;95.00;;;;;;5088712;28;20032;-60
2021/07/19 11:42:33;;;;;;;7.95;7.15;;;30.80;94.70;;;;;;5050246;28;20028;-60
2021/07/19 11:45:18;;;;;;;9.90;7.30;;;30.60;95.10;;;;;;5066694;28;20078;-60
2021/07/19 11:47:48;;;;;;;9.45;7.65;;;29.10;92.10;;;;;;5085116;28;20036;-60
2021/07/19 11:50:17;;;;;;;10.63;7.15;;;28.60;93.50;;;;;;5067960;28;20383;-62
2021/07/19 11:52:44;;;;;;;10.50;7.95;;;28.30;93.50;;;;;;5082752;28;20044;-61
2021/07/19 11:55:12;;;;;;;8.45;6.85;;;28.20;95.10;;;;;;5053434;28;20040;-63
2021/07/19 11:57:50;;;;;;;8.52;7.72;;;28.60;94.10;;;;;;5086998;28;20514;-60
2021/07/19 12:00:39;;;;;;;11.98;8.07;;;28.20;93.70;;;;;;5087123;28;20035;-60
2021/07/19 12:03:06;;;;;;;10.73;8.02;;;28.10;95.70;;;;;;5068299;28;20036;-61
2021/07/19 12:05:34;;;;;;;8.98;8.07;;;27.60;94.40;;;;;;5087659;28;20028;-61
2021/07/19 12:08:09;;;;;;;9.65;7.68;;;27.90;94.50;;;;;;5061719;28;20047;-61
2021/07/19 12:10:40;;;;;;;8.25;7.40;;;27.80;94.20;;;;;;5078656;28;20214;-60
2021/07/19 12:13:16;;;;;;;14.65;10.10;;;28.20;93.70;;;;;;5052427;28;20036;-62
2021/07/19 12:15:55;;;;;;;9.00;7.72;;;28.30;94.60;;;;;;5078813;28;20064;-61
2021/07/19 12:18:34;;;;;;;8.65;7.55;;;29.10;93.20;;;;;;5079782;28;20044;-60
2021/07/19 12:21:02;;;;;;;9.90;8.68;;;28.30;92.70;;;;;;5083927;28;20063;-60
2021/07/19 12:23:49;;;;;;;9.43;8.35;;;28.20;94.10;;;;;;5075868;28;20032;-60
2021/07/19 12:26:37;;;;;;;9.13;8.23;;;28.30;94.50;;;;;;5050121;28;20036;-61
2021/07/19 12:29:15;;;;;;;8.70;7.80;;;27.40;94.60;;;;;;5093019;28;20043;-60
2021/07/19 12:31:43;;;;;;;8.40;7.40;;;27.20;94.40;;;;;;5092758;28;20413;-60
2021/07/19 12:34:14;;;;;;;12.70;9.48;;;27.20;94.10;;;;;;5093063;28;20039;-61
2021/07/19 12:36:41;;;;;;;9.07;7.57;;;27.20;95.40;;;;;;5062266;28;20090;-62
2021/07/19 12:39:11;;;;;;;10.02;8.30;;;27.70;94.10;;;;;;5108798;27;20066;-60